KOJC/OJC METAR and TAF weather

Enter ICAO airport designator
Station Type Date Time Source
KOJC METAR 2021/06/25 02:53 UTC NOAA

KOJC 250253Z AUTO 18013G27KT 10SM CLR 29/21 A2977 RMK AO2 PK WND 18027/0248 SLP067 T02940211 51005


Station Type Date Time Source
KOJC Decoded METAR 2021/06/25 02:53 UTC NOAA

OLATHE JOHNSON CO EXECUTIVE, KS, United States (KOJC) 38-50N 94-44W 326M
Jun 24, 2021 - 10:53 PM EDT / 2021.06.25 0253 UTC
Wind: from the S (180 degrees) at 15 MPH (13 KT) gusting to 31 MPH (27 KT):0
Visibility: 10 mile(s):0
Sky conditions: clear
Temperature: 84.9 F (29.4 C)
Dew Point: 70.0 F (21.1 C)
Relative Humidity: 61%
Pressure (altimeter): 29.77 in. Hg (1008 hPa)
Pressure tendency: 0.01 inches (0.5 hPa) higher than three hours ago
ob: KOJC 250253Z AUTO 18013G27KT 10SM CLR 29/21 A2977 RMK AO2 PK WND 18027/0248 SLP067 T02940211 51005
cycle: 3

Station Type Date Time Source
KOJC TAF UTC NOAA

Error!

Example: see airport list